Pino Ladra — ECGJ — position and weather

sailwx.info

Track history (hours):
 
Tides and Currents Weather Stations Pressure Air Temp Water Temp Dewpoint Dewpoint Depression Visibility Wind Speed Wind Dir Waves Ship Positions

Pino Ladra

Last reported at 2017-Dec-08 23:31 UTC. Time now 2017-Dec-16 19:01 UTC.
Position N 43°41' W 007°36'.

Length 32 m; draft 7.4 m.

Type: Fishing. MMSI: 224134550.

Date/timePositionNaut miles runAvg speedWind from/ knotsBaromVisibWave heightAir tempDewpointWater temp
2017-Dec-08 23:31N 43°41' W 007°36'0 0.2
2017-Dec-08 23:29N 43°41' W 007°36'0 0.2
2017-Dec-08 23:01N 43°41' W 007°36'4 9.0
2017-Dec-08 22:30N 43°45' W 007°33'5 9.9
2017-Dec-08 22:00N 43°47' W 007°26'1 0.0
2017-Dec-07 13:22N 43°46' W 007°27'1 3.4
2017-Dec-07 12:59N 43°47' W 007°28'2 3.4
2017-Dec-07 12:29N 43°47' W 007°31'2 3.4
2017-Dec-07 12:00N 43°47' W 007°33'2 4.8
2017-Dec-07 11:31N 43°45' W 007°35'5 9.4
2017-Dec-07 11:01N 43°41' W 007°36'0 0.1
2017-Dec-07 10:30N 43°41' W 007°36'0 0.0
2017-Dec-07 10:00N 43°41' W 007°36'0 0.0
2017-Dec-07 09:31N 43°41' W 007°36'0 0.0
2017-Dec-07 09:00N 43°41' W 007°36'0 0.0
2017-Dec-07 08:31N 43°41' W 007°36'0 0.0
2017-Dec-07 08:01N 43°41' W 007°36'0 0.0
2017-Dec-07 07:31N 43°41' W 007°36'0 0.0
2017-Dec-07 07:01N 43°41' W 007°36'0 0.0
2017-Dec-07 06:31N 43°41' W 007°36'0 0.0
2017-Dec-07 06:01N 43°41' W 007°36'0 0.0
2017-Dec-07 05:31N 43°41' W 007°36'0 0.0
2017-Dec-07 05:01N 43°41' W 007°36'0 0.0
2017-Dec-07 04:30N 43°41' W 007°36'0 0.0
2017-Dec-07 04:00N 43°41' W 007°36'0 0.0
2017-Dec-07 03:31N 43°41' W 007°36'0 0.0
2017-Dec-07 03:00N 43°41' W 007°36'0 0.0
2017-Dec-07 02:31N 43°41' W 007°36'0 0.0
2017-Dec-07 02:01N 43°41' W 007°36'0 0.0
2017-Dec-07 01:30N 43°41' W 007°36'0 0.0
2017-Dec-07 01:01N 43°41' W 007°36'0 0.0
2017-Dec-07 00:30N 43°41' W 007°36'0 0.0
2017-Dec-07 00:01N 43°41' W 007°36'0 0.0
2017-Dec-06 23:31N 43°41' W 007°36'0 0.0
2017-Dec-06 23:01N 43°41' W 007°36'0 0.0
2017-Dec-06 22:30N 43°41' W 007°36'0 0.0
2017-Dec-06 22:01N 43°41' W 007°36'0 0.0
2017-Dec-06 21:30N 43°41' W 007°36'1 1.9
2017-Dec-06 21:00N 43°42' W 007°36'  
2017-Dec-01 16:54N 43°47' W 007°24'4 7.4
2017-Dec-01 16:19N 43°51' W 007°26'3 7.6
2017-Dec-01 15:54N 43°54' W 007°28'2 3.6
2017-Dec-01 15:20N 43°56' W 007°28'1 3.1
2017-Dec-01 14:55N 43°57' W 007°30'5 0.9
2017-Dec-01 09:27N 43°58' W 007°37'3 3.2
2017-Dec-01 08:39N 43°57' W 007°33'5 0.7
2017-Dec-01 02:16N 43°59' W 007°39'3 3.2
2017-Dec-01 01:10N 43°58' W 007°35'1 3.2
2017-Dec-01 01:00N 43°58' W 007°34'2 3.1
2017-Dec-01 00:27N 43°57' W 007°32'7 4.7
2017-Nov-30 23:03N 43°51' W 007°32'1 8.8
2017-Nov-30 22:59N 43°50' W 007°32'4 9.1
2017-Nov-30 22:30N 43°46' W 007°34'5 9.6
2017-Nov-30 22:00N 43°42' W 007°36'0 0.1
2017-Nov-30 21:30N 43°42' W 007°36'4 9.0
2017-Nov-30 21:01N 43°46' W 007°34'5 9.2
2017-Nov-30 20:30N 43°50' W 007°32'7 6.7
2017-Nov-30 19:30N 43°56' W 007°28'11 3.0
2017-Nov-30 15:46N 43°59' W 007°44'4 2.7
2017-Nov-30 14:17N 43°58' W 007°38'2 3.2
2017-Nov-30 13:36N 43°58' W 007°35'1 3.2
2017-Nov-30 13:25N 43°58' W 007°35'6 2.0
2017-Nov-30 10:36N 43°53' W 007°31'0 3.3
2017-Nov-30 10:29N 43°52' W 007°31'2 3.3
2017-Nov-30 10:01N 43°51' W 007°30'0 0.1
2017-Nov-30 09:31N 43°51' W 007°30'2 3.2
2017-Nov-30 09:00N 43°50' W 007°28'2 3.3
2017-Nov-30 08:29N 43°49' W 007°26'2 3.3
2017-Nov-30 07:53N 43°47' W 007°24'  
Track history (hours):
 
Tides and Currents Weather Stations Pressure Air Temp Water Temp Dewpoint Dewpoint Depression Visibility Wind Speed Wind Dir Waves Ship Positions

Pino Ladra

Last reported at 2017-Dec-08 23:31 UTC. Time now 2017-Dec-16 19:01 UTC.
Position N 43°41' W 007°36'.

Length 32 m; draft 7.4 m.

Type: Fishing. MMSI: 224134550.

Date/timePositionNaut miles runAvg speedWind from/ knotsBaromVisibWave heightAir tempDewpointWater temp
2017-Dec-08 23:31N 43°41' W 007°36'0 0.2
2017-Dec-08 23:29N 43°41' W 007°36'0 0.2
2017-Dec-08 23:01N 43°41' W 007°36'4 9.0
2017-Dec-08 22:30N 43°45' W 007°33'5 9.9
2017-Dec-08 22:00N 43°47' W 007°26'1 0.0
2017-Dec-07 13:22N 43°46' W 007°27'1 3.4
2017-Dec-07 12:59N 43°47' W 007°28'2 3.4
2017-Dec-07 12:29N 43°47' W 007°31'2 3.4
2017-Dec-07 12:00N 43°47' W 007°33'2 4.8
2017-Dec-07 11:31N 43°45' W 007°35'5 9.4
2017-Dec-07 11:01N 43°41' W 007°36'0 0.1
2017-Dec-07 10:30N 43°41' W 007°36'0 0.0
2017-Dec-07 10:00N 43°41' W 007°36'0 0.0
2017-Dec-07 09:31N 43°41' W 007°36'0 0.0
2017-Dec-07 09:00N 43°41' W 007°36'0 0.0
2017-Dec-07 08:31N 43°41' W 007°36'0 0.0
2017-Dec-07 08:01N 43°41' W 007°36'0 0.0
2017-Dec-07 07:31N 43°41' W 007°36'0 0.0
2017-Dec-07 07:01N 43°41' W 007°36'0 0.0
2017-Dec-07 06:31N 43°41' W 007°36'0 0.0
2017-Dec-07 06:01N 43°41' W 007°36'0 0.0
2017-Dec-07 05:31N 43°41' W 007°36'0 0.0
2017-Dec-07 05:01N 43°41' W 007°36'0 0.0
2017-Dec-07 04:30N 43°41' W 007°36'0 0.0
2017-Dec-07 04:00N 43°41' W 007°36'0 0.0
2017-Dec-07 03:31N 43°41' W 007°36'0 0.0
2017-Dec-07 03:00N 43°41' W 007°36'0 0.0
2017-Dec-07 02:31N 43°41' W 007°36'0 0.0
2017-Dec-07 02:01N 43°41' W 007°36'0 0.0
2017-Dec-07 01:30N 43°41' W 007°36'0 0.0
2017-Dec-07 01:01N 43°41' W 007°36'0 0.0
2017-Dec-07 00:30N 43°41' W 007°36'0 0.0
2017-Dec-07 00:01N 43°41' W 007°36'0 0.0
2017-Dec-06 23:31N 43°41' W 007°36'0 0.0
2017-Dec-06 23:01N 43°41' W 007°36'0 0.0
2017-Dec-06 22:30N 43°41' W 007°36'0 0.0
2017-Dec-06 22:01N 43°41' W 007°36'0 0.0
2017-Dec-06 21:30N 43°41' W 007°36'1 1.9
2017-Dec-06 21:00N 43°42' W 007°36'  
2017-Dec-01 16:54N 43°47' W 007°24'4 7.4
2017-Dec-01 16:19N 43°51' W 007°26'3 7.6
2017-Dec-01 15:54N 43°54' W 007°28'2 3.6
2017-Dec-01 15:20N 43°56' W 007°28'1 3.1
2017-Dec-01 14:55N 43°57' W 007°30'5 0.9
2017-Dec-01 09:27N 43°58' W 007°37'3 3.2
2017-Dec-01 08:39N 43°57' W 007°33'5 0.7
2017-Dec-01 02:16N 43°59' W 007°39'3 3.2
2017-Dec-01 01:10N 43°58' W 007°35'1 3.2
2017-Dec-01 01:00N 43°58' W 007°34'2 3.1
2017-Dec-01 00:27N 43°57' W 007°32'7 4.7
2017-Nov-30 23:03N 43°51' W 007°32'1 8.8
2017-Nov-30 22:59N 43°50' W 007°32'4 9.1
2017-Nov-30 22:30N 43°46' W 007°34'5 9.6
2017-Nov-30 22:00N 43°42' W 007°36'0 0.1
2017-Nov-30 21:30N 43°42' W 007°36'4 9.0
2017-Nov-30 21:01N 43°46' W 007°34'5 9.2
2017-Nov-30 20:30N 43°50' W 007°32'7 6.7
2017-Nov-30 19:30N 43°56' W 007°28'11 3.0
2017-Nov-30 15:46N 43°59' W 007°44'4 2.7
2017-Nov-30 14:17N 43°58' W 007°38'2 3.2
2017-Nov-30 13:36N 43°58' W 007°35'1 3.2
2017-Nov-30 13:25N 43°58' W 007°35'6 2.0
2017-Nov-30 10:36N 43°53' W 007°31'0 3.3
2017-Nov-30 10:29N 43°52' W 007°31'2 3.3
2017-Nov-30 10:01N 43°51' W 007°30'0 0.1
2017-Nov-30 09:31N 43°51' W 007°30'2 3.2
2017-Nov-30 09:00N 43°50' W 007°28'2 3.3
2017-Nov-30 08:29N 43°49' W 007°26'2 3.3
2017-Nov-30 07:53N 43°47' W 007°24'  

Dump ship's entire track history